»·PEaware :: N178KM KGEG-KHQM

N178KM :: KGEG-KHQM

FLIGHT INFORMATION

Flight Status: Arrived
Operator: Privately registered:
United States
More flights under this callsign
Pilot: John M. (9732)
Aircraft: CIRRUS SR-22
(SR22)
More flights by this aircraft type
Origin: KGEG Spokane Intl
United States
Destination: KHQM Bowerman
United States
More flights between these airports :: More routes between these airports
Route: +EPAFY V120 EPH V336 ELN V187 OLM V204 SOUPY
File this flight plan on PilotEdge
Remarks:
Altitude:
(Current/Filed)
10,500ft
Speed:
(Current/Filed)
140kts
Departed: 04-Oct-20 06:20 PM
Arrived: 04-Oct-20 08:17 PM
Distance/Time
Traveled:
263nm/1:56
Distance/Time
To Go:
Arrived

Flight Plot

Page will automatically refresh every two minutes.

Flight plan parsing failed; only flown route is shown


Map Options




Map Legend


Flown Route
Filed Route
Departure Airport
Arrival Airport
Navaid (VOR, NDB)
Fix

Horizontal Profiles

Position Reports

Time Latitude Longitude Heading Altitude Ground
Speed
04-Oct-20 17:58 47.620430 -117.528554 359 2362ft 0kts
04-Oct-20 17:59 47.620430 -117.528554 359 2362ft 0kts
04-Oct-20 18:00 47.620430 -117.528554 359 2362ft 0kts
04-Oct-20 18:01 47.620430 -117.528554 359 2362ft 0kts
04-Oct-20 18:02 47.620430 -117.528554 359 2362ft 0kts
04-Oct-20 18:03 47.620430 -117.528554 359 2362ft 0kts
04-Oct-20 18:04 47.620430 -117.528554 359 2362ft 0kts
04-Oct-20 18:05 47.620430 -117.528554 359 2362ft 0kts
04-Oct-20 18:06 47.620430 -117.528554 359 2362ft 0kts
04-Oct-20 18:07 47.620430 -117.528554 359 2362ft 0kts
04-Oct-20 18:08 47.620430 -117.528554 359 2362ft 0kts
04-Oct-20 18:09 47.620430 -117.528554 359 2362ft 0kts
04-Oct-20 18:10 47.620430 -117.528554 359 2362ft 0kts
04-Oct-20 18:11 47.621141 -117.528857 327 2360ft 6kts
04-Oct-20 18:12 47.623565 -117.526306 45 2353ft 16kts
04-Oct-20 18:13 47.627353 -117.520582 40 2335ft 19kts
04-Oct-20 18:14 47.629973 -117.516980 359 2322ft 0kts
04-Oct-20 18:15 47.629994 -117.516979 359 2322ft 0kts
04-Oct-20 18:16 47.629994 -117.516979 359 2322ft 0kts
04-Oct-20 18:17 47.630067 -117.517007 331 2321ft 3kts
04-Oct-20 18:18 47.630530 -117.519248 227 2322ft 30kts
04-Oct-20 18:19 47.613945 -117.546192 229 3102ft 110kts
04-Oct-20 18:20 47.592052 -117.578884 221 4247ft 111kts
04-Oct-20 18:21 47.566635 -117.609358 221 5099ft 120kts
04-Oct-20 18:22 47.539638 -117.640664 221 5774ft 124kts
04-Oct-20 18:23 47.512172 -117.671650 221 6446ft 124kts
04-Oct-20 18:24 47.486183 -117.704235 243 7081ft 121kts
04-Oct-20 18:25 47.487298 -117.751128 293 7684ft 122kts
04-Oct-20 18:26 47.505251 -117.793463 303 8249ft 124kts
04-Oct-20 18:27 47.526120 -117.834608 303 8842ft 124kts
04-Oct-20 18:28 47.538467 -117.879944 272 9413ft 121kts
04-Oct-20 18:29 47.535493 -117.928881 265 9979ft 118kts
04-Oct-20 18:30 47.530898 -117.976431 265 10499ft 117kts
04-Oct-20 18:31 47.525752 -118.028565 265 10512ft 135kts
04-Oct-20 18:32 47.520151 -118.084661 265 10509ft 139kts
04-Oct-20 18:33 47.514462 -118.141420 265 10508ft 139kts
04-Oct-20 18:34 47.508722 -118.198320 265 10508ft 140kts
04-Oct-20 18:35 47.502943 -118.255517 264 10507ft 140kts
04-Oct-20 18:36 47.497148 -118.312722 265 10507ft 140kts
04-Oct-20 18:37 47.491312 -118.369758 265 10496ft 140kts
04-Oct-20 18:38 47.485418 -118.427033 265 10481ft 140kts
04-Oct-20 18:39 47.479499 -118.484306 264 10464ft 141kts
04-Oct-20 18:40 47.473553 -118.541417 264 10450ft 140kts
04-Oct-20 18:41 47.467596 -118.598442 264 10442ft 140kts
04-Oct-20 18:42 47.461616 -118.655353 264 10444ft 139kts
04-Oct-20 18:44 47.455606 -118.712329 264 10446ft 141kts
04-Oct-20 18:45 47.449530 -118.769671 264 10445ft 142kts
04-Oct-20 18:46 47.443388 -118.827269 264 10445ft 141kts
04-Oct-20 18:47 47.437238 -118.884776 264 10445ft 141kts
04-Oct-20 18:48 47.431054 -118.942223 264 10445ft 141kts
04-Oct-20 18:49 47.424824 -118.999851 264 10445ft 142kts
04-Oct-20 18:50 47.418527 -119.057767 264 10444ft 142kts
04-Oct-20 18:51 47.412218 -119.115590 264 10444ft 142kts
04-Oct-20 18:52 47.405853 -119.173620 264 10444ft 142kts
04-Oct-20 18:53 47.399489 -119.231312 264 10444ft 142kts
04-Oct-20 18:54 47.393076 -119.289228 264 10443ft 142kts
04-Oct-20 18:55 47.386656 -119.346890 264 10444ft 142kts
04-Oct-20 18:56 47.380175 -119.404856 264 10443ft 143kts
04-Oct-20 18:57 47.365866 -119.460068 249 10443ft 146kts
04-Oct-20 18:58 47.347813 -119.514007 249 10443ft 146kts
04-Oct-20 18:59 47.329676 -119.567940 249 10443ft 147kts
04-Oct-20 19:00 47.311525 -119.621759 249 10443ft 146kts
04-Oct-20 19:00 47.296339 -119.666692 248 10446ft 147kts
04-Oct-20 19:02 47.274941 -119.729906 248 10446ft 147kts
04-Oct-20 19:02 47.259671 -119.774904 248 10446ft 147kts
04-Oct-20 19:03 47.241272 -119.829036 248 10445ft 147kts
04-Oct-20 19:05 47.219793 -119.892078 248 10445ft 147kts
04-Oct-20 19:05 47.204410 -119.937137 248 10445ft 147kts
04-Oct-20 19:06 47.186000 -119.990960 248 10445ft 147kts
04-Oct-20 19:08 47.164336 -120.054124 248 10443ft 150kts
04-Oct-20 19:08 47.148510 -120.100190 248 10454ft 152kts
04-Oct-20 19:09 47.129327 -120.155914 249 10462ft 152kts
04-Oct-20 19:10 47.110138 -120.211538 249 10475ft 152kts
04-Oct-20 19:11 47.090999 -120.266914 249 10489ft 152kts
04-Oct-20 19:12 47.071752 -120.322474 249 10490ft 152kts
04-Oct-20 19:13 47.052576 -120.377726 249 10497ft 152kts
04-Oct-20 19:14 47.033330 -120.433044 249 10500ft 152kts
04-Oct-20 19:15 47.024243 -120.491001 273 10500ft 146kts
04-Oct-20 19:16 47.023461 -120.550844 273 10499ft 146kts
04-Oct-20 19:17 47.022721 -120.610541 273 10499ft 146kts
04-Oct-20 19:18 47.021976 -120.669973 272 10501ft 146kts
04-Oct-20 19:19 47.021198 -120.729697 272 10502ft 146kts
04-Oct-20 19:20 47.020383 -120.789447 272 10501ft 146kts
04-Oct-20 19:21 47.019554 -120.848771 273 10502ft 145kts
04-Oct-20 19:22 47.018691 -120.908271 272 10500ft 145kts
04-Oct-20 19:23 47.017793 -120.967349 272 10501ft 145kts
04-Oct-20 19:24 47.016856 -121.026561 273 10501ft 145kts
04-Oct-20 19:25 47.015906 -121.085757 273 10500ft 144kts
04-Oct-20 19:26 47.014931 -121.144707 273 10500ft 144kts
04-Oct-20 19:27 47.013917 -121.203716 273 10500ft 144kts
04-Oct-20 19:28 47.012881 -121.262420 273 10534ft 143kts
04-Oct-20 19:29 47.011832 -121.320423 273 10572ft 143kts
04-Oct-20 19:30 47.010729 -121.378605 273 10611ft 142kts
04-Oct-20 19:31 47.009634 -121.436283 273 10647ft 141kts
04-Oct-20 19:32 47.008492 -121.494340 273 10655ft 143kts
04-Oct-20 19:33 47.007314 -121.552675 273 10655ft 143kts
04-Oct-20 19:34 47.006103 -121.611144 273 10654ft 143kts
04-Oct-20 19:35 47.004856 -121.669497 273 10667ft 143kts
04-Oct-20 19:36 47.003591 -121.727984 273 10667ft 143kts
04-Oct-20 19:37 47.002289 -121.786477 273 10667ft 143kts
04-Oct-20 19:38 47.000962 -121.844775 273 10666ft 143kts
04-Oct-20 19:39 46.999613 -121.902866 273 10666ft 142kts
04-Oct-20 19:40 46.998209 -121.962535 273 10500ft 147kts
04-Oct-20 19:41 46.996750 -122.021509 273 10501ft 143kts
04-Oct-20 19:42 46.995311 -122.079901 273 10501ft 143kts
04-Oct-20 19:43 46.993841 -122.138068 273 10500ft 143kts
04-Oct-20 19:44 46.992332 -122.196485 273 10501ft 143kts
04-Oct-20 19:45 46.990790 -122.254985 273 10500ft 143kts
04-Oct-20 19:46 46.989220 -122.313432 273 10500ft 143kts
04-Oct-20 19:47 46.987618 -122.371966 273 10500ft 143kts
04-Oct-20 19:48 46.985988 -122.430497 273 10500ft 143kts
04-Oct-20 19:49 46.984330 -122.488892 273 10500ft 143kts
04-Oct-20 19:50 46.982632 -122.547603 273 10499ft 143kts
04-Oct-20 19:51 46.980916 -122.606001 273 10499ft 143kts
04-Oct-20 19:52 46.979161 -122.664877 272 10431ft 148kts
04-Oct-20 19:53 46.977267 -122.727700 272 10066ft 157kts
04-Oct-20 19:54 46.975318 -122.789923 272 9999ft 149kts
04-Oct-20 19:55 46.973419 -122.850049 272 10001ft 147kts
04-Oct-20 19:56 46.971669 -122.910102 273 10001ft 147kts
04-Oct-20 19:57 46.970780 -122.972263 273 9570ft 163kts
04-Oct-20 19:58 46.969751 -123.040534 273 8804ft 169kts
04-Oct-20 19:59 46.969799 -123.109543 277 8057ft 169kts
04-Oct-20 20:00 46.977296 -123.177477 287 7323ft 169kts
04-Oct-20 20:01 46.993277 -123.242013 297 6600ft 168kts
04-Oct-20 20:02 47.017058 -123.300415 308 5880ft 165kts
04-Oct-20 20:03 47.014148 -123.366587 256 4952ft 140kts
04-Oct-20 20:04 47.008285 -123.420569 269 4421ft 129kts
04-Oct-20 20:05 47.001872 -123.472370 262 3730ft 132kts
04-Oct-20 20:06 46.995095 -123.526264 263 2942ft 136kts
04-Oct-20 20:07 46.988982 -123.576252 266 2123ft 117kts
04-Oct-20 20:08 46.985752 -123.630245 268 2105ft 142kts
04-Oct-20 20:09 46.985203 -123.686200 274 2083ft 119kts
04-Oct-20 20:10 46.987032 -123.729666 275 2108ft 105kts
04-Oct-20 20:11 46.987257 -123.771598 269 2379ft 91kts
04-Oct-20 20:12 46.984531 -123.808686 266 2038ft 91kts
04-Oct-20 20:13 46.981737 -123.845906 264 1552ft 91kts
04-Oct-20 20:14 46.977653 -123.881477 262 855ft 82kts
04-Oct-20 20:15 46.973919 -123.913336 262 281ft 77kts
04-Oct-20 20:16 46.971004 -123.938117 258 18ft 27kts
04-Oct-20 20:17 46.972077 -123.938099 85 17ft 10kts
04-Oct-20 20:18 46.972566 -123.933810 76 17ft 11kts
04-Oct-20 20:19 46.973563 -123.930027 72 16ft 2kts
04-Oct-20 20:20 46.973566 -123.930014 71 16ft 0kts
04-Oct-20 20:21 46.973566 -123.930014 71 16ft 0kts
04-Oct-20 20:22 46.973566 -123.930014 71 16ft 0kts

Navigation Log

Ident Type
Flight plan parsing failed, navigation log unavailable